createdAt,value
2022-10-01T00:00:13.715Z,33.60
2022-10-01T00:02:36.791Z,34.22
2022-10-01T00:04:39.564Z,33.63
2022-10-01T00:08:43.045Z,33.50
2022-10-01T00:10:44.571Z,34.17
2022-10-01T00:12:47.727Z,33.50
2022-10-01T00:16:50.696Z,33.45
2022-10-01T00:18:55.721Z,33.38
2022-10-01T00:20:57.162Z,34.53
2022-10-01T00:22:58.658Z,34.78
2022-10-01T00:25:00.547Z,34.72
2022-10-01T00:27:02.043Z,35.33
2022-10-01T00:29:04.842Z,35.72
2022-10-01T00:31:07.789Z,37.42
2022-10-01T00:33:09.274Z,37.53
2022-10-01T00:35:10.776Z,36.30
2022-10-01T00:37:12.451Z,36.97
2022-10-01T00:39:13.976Z,36.58
2022-10-01T00:41:15.934Z,37.03
2022-10-01T00:43:24.876Z,41.00
2022-10-01T00:45:26.478Z,44.30
2022-10-01T00:47:43.552Z,41.92
2022-10-01T00:49:47.161Z,39.72
2022-10-01T00:51:52.464Z,39.05
2022-10-01T00:53:56.870Z,38.90
2022-10-01T00:55:59.887Z,39.47
2022-10-01T00:58:01.338Z,38.03
2022-10-01T01:00:06.645Z,38.45
2022-10-01T01:02:08.472Z,38.83
2022-10-01T01:04:16.441Z,39.03
2022-10-01T01:06:18.316Z,37.20
2022-10-01T01:08:20.167Z,37.53
2022-10-01T01:10:34.147Z,38.00
2022-10-01T01:12:54.674Z,38.42
2022-10-01T01:15:15.152Z,37.92
2022-10-01T01:17:23.435Z,38.05
2022-10-01T01:19:27.668Z,38.13
2022-10-01T01:21:29.377Z,38.85
2022-10-01T01:23:31.607Z,38.13
2022-10-01T01:25:39.966Z,39.33
2022-10-01T01:27:44.365Z,38.85
2022-10-01T01:30:24.218Z,39.08
2022-10-01T01:32:29.401Z,38.47
2022-10-01T01:34:31.667Z,37.15
2022-10-01T01:36:35.802Z,38.10
2022-10-01T01:38:40.380Z,38.95
2022-10-01T01:40:43.354Z,39.03
2022-10-01T01:42:46.002Z,38.08
2022-10-01T01:44:48.177Z,38.80
2022-10-01T01:46:51.094Z,39.75
2022-10-01T01:48:53.320Z,39.78
2022-10-01T01:51:08.548Z,38.75
2022-10-01T01:53:11.305Z,39.45
2022-10-01T01:55:12.793Z,38.33
2022-10-01T01:57:15.937Z,38.90
2022-10-01T01:59:18.617Z,38.83
2022-10-01T02:01:34.333Z,39.83
2022-10-01T02:03:36.032Z,40.65
2022-10-01T02:05:43.239Z,40.47
2022-10-01T02:07:44.702Z,40.17
2022-10-01T02:09:47.030Z,41.60
2022-10-01T02:11:57.283Z,40.78
2022-10-01T02:14:00.131Z,40.35
2022-10-01T02:16:04.513Z,41.67
2022-10-01T02:18:12.041Z,41.35
2022-10-01T02:20:39.869Z,43.45
2022-10-01T02:22:41.347Z,42.42
2022-10-01T02:24:49.092Z,43.78
2022-10-01T02:26:51.527Z,45.40
2022-10-01T02:28:54.786Z,47.15
2022-10-01T02:30:57.250Z,50.67
2022-10-01T02:33:00.255Z,51.15
2022-10-01T02:37:04.581Z,48.55
2022-10-01T02:39:07.050Z,51.00
2022-10-01T02:41:11.591Z,51.45
2022-10-01T02:43:18.927Z,50.90
2022-10-01T02:45:22.839Z,51.90
2022-10-01T02:47:33.256Z,52.97
2022-10-01T02:49:35.805Z,50.63
2022-10-01T02:51:54.829Z,50.92
2022-10-01T02:54:01.246Z,51.20
2022-10-01T02:56:04.413Z,52.10
2022-10-01T02:58:06.817Z,52.35
2022-10-01T03:00:10.322Z,53.13
2022-10-01T03:02:12.330Z,56.60
2022-10-01T03:04:13.863Z,56.97
2022-10-01T03:06:15.357Z,60.80
2022-10-01T03:08:17.097Z,65.03
2022-10-01T03:10:18.625Z,94.60
2022-10-01T03:12:20.310Z,109.35
2022-10-01T03:14:22.022Z,114.45
2022-10-01T03:16:23.671Z,68.20
2022-10-01T03:18:25.303Z,60.67
2022-10-01T03:20:27.178Z,52.53
2022-10-01T03:22:28.679Z,51.03
2022-10-01T03:24:30.133Z,49.45
2022-10-01T03:26:31.772Z,57.30
2022-10-01T03:28:33.698Z,86.18
2022-10-01T03:30:35.403Z,66.25
2022-10-01T03:32:37.495Z,60.05
2022-10-01T03:34:39.046Z,59.95
2022-10-01T03:36:40.539Z,64.25
2022-10-01T03:38:42.265Z,62.00
2022-10-01T03:40:43.895Z,72.63
2022-10-01T03:42:45.482Z,69.30
2022-10-01T03:44:47.910Z,60.88
2022-10-01T03:46:49.526Z,51.85
2022-10-01T03:48:51.039Z,51.05
2022-10-01T03:50:57.280Z,52.78
2022-10-01T03:53:00.118Z,55.70
2022-10-01T03:55:01.803Z,52.47
2022-10-01T03:57:03.692Z,50.00
2022-10-01T03:59:05.305Z,51.97
2022-10-01T04:01:06.795Z,51.47
2022-10-01T04:03:08.662Z,49.25
2022-10-01T04:05:10.447Z,49.30
2022-10-01T04:07:11.984Z,47.78
2022-10-01T04:09:13.706Z,51.08
2022-10-01T04:11:15.261Z,57.03
2022-10-01T04:13:17.159Z,58.65
2022-10-01T04:15:18.882Z,59.60
2022-10-01T04:17:20.775Z,53.38
2022-10-01T04:19:22.328Z,53.95
2022-10-01T04:21:24.140Z,52.97
2022-10-01T04:23:26.311Z,54.90
2022-10-01T04:25:28.350Z,54.77
2022-10-01T04:27:30.055Z,53.28
2022-10-01T04:29:31.612Z,53.53
2022-10-01T04:31:35.261Z,53.20
2022-10-01T04:33:37.433Z,54.95
2022-10-01T04:35:39.322Z,52.00
2022-10-01T04:37:40.923Z,52.00
2022-10-01T04:39:42.615Z,54.88
2022-10-01T04:41:44.127Z,53.67
2022-10-01T04:43:45.740Z,52.67
2022-10-01T04:45:47.576Z,57.25
2022-10-01T04:47:50.333Z,57.30
2022-10-01T04:49:51.847Z,58.05
2022-10-01T04:51:53.563Z,57.45
2022-10-01T04:53:55.587Z,57.70
2022-10-01T04:55:57.204Z,56.17
2022-10-01T04:57:59.051Z,55.78
2022-10-01T05:00:01.630Z,53.42
2022-10-01T05:02:03.355Z,56.97
2022-10-01T05:04:05.666Z,54.95
2022-10-01T05:06:07.228Z,54.37
2022-10-01T05:08:08.823Z,53.00
2022-10-01T05:10:12.484Z,50.97
2022-10-01T05:12:14.142Z,52.42
2022-10-01T05:14:16.032Z,49.33
2022-10-01T05:16:17.753Z,50.17
2022-10-01T05:18:19.418Z,49.60
2022-10-01T05:20:22.713Z,50.05
2022-10-01T05:22:24.479Z,49.88
2022-10-01T05:24:26.178Z,50.30
2022-10-01T05:26:27.980Z,49.28
2022-10-01T05:28:29.802Z,47.25
2022-10-01T05:30:32.185Z,48.35
2022-10-01T05:32:34.201Z,46.33
2022-10-01T05:34:36.350Z,45.58
2022-10-01T05:36:37.978Z,41.90
2022-10-01T05:38:39.494Z,39.35
2022-10-01T05:40:44.785Z,35.70
2022-10-01T05:42:47.082Z,34.88
2022-10-01T05:44:50.043Z,35.13
2022-10-01T05:46:55.326Z,32.30
2022-10-01T05:48:56.869Z,32.63
2022-10-01T05:50:58.655Z,33.47
2022-10-01T05:53:00.830Z,33.20
2022-10-01T05:55:02.572Z,32.83
2022-10-01T05:57:05.177Z,31.92
2022-10-01T06:01:08.482Z,32.85
2022-10-01T06:03:12.937Z,32.78
2022-10-01T06:05:14.900Z,33.85
2022-10-01T06:07:16.539Z,34.95
2022-10-01T06:09:18.103Z,32.00
2022-10-01T06:11:22.046Z,33.17
2022-10-01T06:13:23.619Z,34.72
2022-10-01T06:15:25.339Z,36.67
2022-10-01T06:17:27.333Z,34.27
2022-10-01T06:19:29.630Z,33.72
2022-10-01T06:21:32.244Z,33.42
2022-10-01T06:23:34.223Z,34.55
2022-10-01T06:25:37.138Z,35.28
2022-10-01T06:27:39.134Z,34.60
2022-10-01T06:29:41.036Z,33.90
2022-10-01T06:31:42.962Z,32.53
2022-10-01T06:33:44.526Z,31.77
2022-10-01T06:35:50.495Z,30.25
2022-10-01T06:37:52.128Z,29.88
2022-10-01T06:39:53.783Z,28.75
2022-10-01T06:41:55.771Z,31.80
2022-10-01T06:43:57.379Z,30.47
2022-10-01T06:46:03.234Z,32.40
2022-10-01T06:48:05.176Z,34.42
2022-10-01T06:50:06.955Z,32.13
2022-10-01T06:52:28.061Z,33.80
2022-10-01T06:54:30.083Z,33.53
2022-10-01T06:56:31.601Z,37.37
2022-10-01T06:58:33.812Z,37.60
2022-10-01T07:00:36.616Z,35.28
2022-10-01T07:02:39.575Z,33.63
2022-10-01T07:06:43.047Z,33.65
2022-10-01T07:08:44.808Z,38.13
2022-10-01T07:10:46.395Z,32.28
2022-10-01T07:12:51.219Z,29.10
2022-10-01T07:14:52.889Z,29.63
2022-10-01T07:16:54.496Z,29.55
2022-10-01T07:18:56.284Z,28.40
2022-10-01T07:20:58.373Z,30.35
2022-10-01T07:23:00.460Z,30.30
2022-10-01T07:25:02.443Z,30.70
2022-10-01T07:27:07.368Z,30.87
2022-10-01T07:29:10.428Z,30.52
2022-10-01T07:31:12.387Z,31.40
2022-10-01T07:33:18.191Z,30.38
2022-10-01T07:35:21.102Z,30.40
2022-10-01T07:37:23.013Z,30.52
2022-10-01T07:39:24.607Z,31.42
2022-10-01T07:41:26.198Z,29.67
2022-10-01T07:43:28.175Z,30.60
2022-10-01T07:45:29.733Z,27.15
2022-10-01T07:47:31.376Z,30.98
2022-10-01T07:49:33.248Z,27.70
2022-10-01T07:51:36.679Z,25.27
2022-10-01T07:53:38.453Z,22.40
2022-10-01T07:55:40.382Z,24.63
2022-10-01T07:57:41.956Z,22.27
2022-10-01T07:59:43.620Z,23.60
2022-10-01T08:01:48.093Z,20.97
2022-10-01T08:03:50.064Z,21.65
2022-10-01T08:05:53.616Z,21.77
2022-10-01T08:08:02.538Z,24.05
2022-10-01T08:10:04.609Z,22.60
2022-10-01T08:12:06.201Z,23.33
2022-10-01T08:14:08.024Z,24.10
2022-10-01T08:16:09.847Z,23.42
2022-10-01T08:18:11.687Z,22.85
2022-10-01T08:20:13.916Z,26.25
2022-10-01T08:22:15.535Z,26.40
2022-10-01T08:24:17.750Z,26.60
2022-10-01T08:26:19.933Z,26.73
2022-10-01T08:28:21.546Z,27.90
2022-10-01T08:30:23.334Z,27.50
2022-10-01T08:32:27.449Z,29.67
2022-10-01T08:34:29.079Z,29.13
2022-10-01T08:36:30.837Z,29.65
2022-10-01T08:38:32.553Z,28.20
2022-10-01T08:40:36.852Z,28.60
2022-10-01T08:42:47.572Z,28.15
2022-10-01T08:44:51.004Z,28.40
2022-10-01T08:46:53.177Z,27.90
2022-10-01T08:49:04.066Z,25.08
2022-10-01T08:51:09.145Z,25.10
2022-10-01T08:53:31.357Z,25.33
2022-10-01T08:55:37.290Z,23.73
2022-10-01T08:57:47.003Z,23.83
2022-10-01T08:59:49.676Z,23.35
2022-10-01T09:01:51.319Z,21.83
2022-10-01T09:03:53.546Z,20.88
2022-10-01T09:06:13.987Z,20.17
2022-10-01T09:08:21.539Z,20.92
2022-10-01T09:10:35.996Z,20.45
2022-10-01T09:12:45.522Z,19.42
2022-10-01T09:15:03.748Z,18.80
2022-10-01T09:17:20.438Z,18.15
2022-10-01T09:19:27.843Z,26.42
2022-10-01T09:21:47.438Z,20.40
2022-10-01T09:24:09.425Z,21.25
2022-10-01T09:26:12.866Z,19.67
2022-10-01T09:28:21.975Z,19.70
2022-10-01T09:30:27.075Z,18.15
2022-10-01T09:32:35.974Z,20.02
2022-10-01T09:34:40.042Z,20.73
2022-10-01T09:37:14.649Z,22.27
2022-10-01T09:39:26.727Z,19.02
2022-10-01T09:41:28.435Z,21.17
2022-10-01T09:43:31.710Z,22.92
2022-10-01T09:45:34.293Z,23.08
2022-10-01T09:47:35.939Z,21.25
2022-10-01T09:49:43.747Z,21.00
2022-10-01T09:51:48.483Z,20.17
2022-10-01T09:54:03.351Z,21.20
2022-10-01T09:56:09.302Z,21.45
2022-10-01T09:58:30.151Z,21.20
2022-10-01T10:00:31.832Z,22.30
2022-10-01T10:02:48.922Z,22.35
2022-10-01T10:05:00.965Z,22.23
2022-10-01T10:07:05.067Z,23.27
2022-10-01T10:09:14.846Z,23.90
2022-10-01T10:11:21.778Z,22.80
2022-10-01T10:13:27.287Z,24.63
2022-10-01T10:15:32.614Z,21.63
2022-10-01T10:17:37.822Z,20.77
2022-10-01T10:19:40.347Z,20.40
2022-10-01T10:21:52.482Z,21.17
2022-10-01T10:23:58.981Z,20.50
2022-10-01T10:26:02.861Z,19.83
2022-10-01T10:28:05.106Z,21.70
2022-10-01T10:30:13.753Z,22.58
2022-10-01T10:32:19.699Z,22.65
2022-10-01T10:34:26.669Z,22.60
2022-10-01T10:36:29.691Z,21.30
2022-10-01T10:38:33.638Z,22.85
2022-10-01T10:40:43.169Z,22.33
2022-10-01T10:42:51.783Z,21.65
2022-10-01T10:44:55.454Z,23.20
2022-10-01T10:47:00.247Z,22.85
2022-10-01T10:49:31.163Z,22.38
2022-10-01T10:51:51.329Z,23.98
2022-10-01T10:53:53.199Z,23.23
2022-10-01T10:55:56.462Z,26.20
2022-10-01T10:58:09.615Z,24.52
2022-10-01T11:00:13.755Z,25.02
2022-10-01T11:02:16.664Z,27.65
2022-10-01T11:04:29.553Z,29.75
2022-10-01T11:06:31.525Z,23.35
2022-10-01T11:08:35.753Z,21.55
2022-10-01T11:10:49.530Z,23.88
2022-10-01T11:13:10.198Z,22.98
2022-10-01T11:15:41.952Z,22.00
2022-10-01T11:17:55.160Z,25.13
2022-10-01T11:19:56.926Z,23.67
2022-10-01T11:22:21.659Z,22.20
2022-10-01T11:24:42.197Z,22.25
2022-10-01T11:26:43.973Z,22.40
2022-10-01T11:28:57.730Z,20.90
2022-10-01T11:31:10.142Z,24.08
2022-10-01T11:33:26.639Z,20.73
2022-10-01T11:35:35.080Z,22.33
2022-10-01T11:37:36.715Z,22.50
2022-10-01T11:39:39.858Z,21.38
2022-10-01T11:43:44.542Z,21.38
2022-10-01T11:45:48.772Z,19.33
2022-10-01T11:47:53.128Z,19.10
2022-10-01T11:50:05.754Z,20.05
2022-10-01T11:52:26.654Z,18.38
2022-10-01T11:54:30.471Z,16.20
2022-10-01T11:56:53.276Z,17.00
2022-10-01T11:58:57.255Z,14.68
2022-10-01T12:01:01.922Z,14.00
2022-10-01T12:03:05.671Z,15.00
2022-10-01T12:05:10.587Z,14.25
2022-10-01T12:07:15.320Z,13.82
2022-10-01T12:09:20.032Z,14.65
2022-10-01T12:11:42.712Z,18.38
2022-10-01T12:14:03.478Z,16.27
2022-10-01T12:16:24.110Z,15.65
2022-10-01T12:18:30.282Z,19.17
2022-10-01T12:20:42.846Z,19.20
2022-10-01T12:22:44.855Z,19.17
2022-10-01T12:24:47.383Z,18.80
2022-10-01T12:26:48.898Z,24.98
2022-10-01T12:29:00.121Z,20.63
2022-10-01T12:31:25.071Z,18.55
2022-10-01T12:33:32.933Z,17.23
2022-10-01T12:35:37.302Z,17.20
2022-10-01T12:38:00.967Z,15.80
2022-10-01T12:40:21.207Z,15.27
2022-10-01T12:42:25.698Z,14.25
2022-10-01T12:44:37.920Z,15.77
2022-10-01T12:46:41.427Z,16.35
2022-10-01T12:48:43.118Z,16.27
2022-10-01T12:51:02.879Z,17.30
2022-10-01T12:53:10.352Z,16.20
2022-10-01T12:55:23.971Z,15.20
2022-10-01T12:57:37.031Z,14.77
2022-10-01T12:59:57.619Z,15.95
2022-10-01T13:02:04.526Z,15.82
2022-10-01T13:04:09.246Z,14.98
2022-10-01T13:06:10.764Z,15.40
2022-10-01T13:08:18.449Z,15.70
2022-10-01T13:10:39.319Z,15.93
2022-10-01T13:12:46.990Z,15.10
2022-10-01T13:14:48.794Z,13.25
2022-10-01T13:17:02.067Z,14.13
2022-10-01T13:19:06.400Z,14.05
2022-10-01T13:21:14.828Z,13.50
2022-10-01T13:23:21.833Z,13.98
2022-10-01T13:25:32.930Z,13.15
2022-10-01T13:27:41.487Z,12.60
2022-10-01T13:29:59.958Z,12.77
2022-10-01T13:32:02.717Z,11.27
2022-10-01T13:34:24.083Z,15.68
2022-10-01T13:36:30.028Z,11.13
2022-10-01T13:38:37.746Z,9.50
2022-10-01T13:40:39.364Z,10.13
2022-10-01T13:42:45.545Z,10.68
2022-10-01T13:44:51.595Z,9.52
2022-10-01T13:47:06.057Z,8.82
2022-10-01T13:49:16.682Z,9.13
2022-10-01T13:51:20.207Z,9.18
2022-10-01T13:53:25.020Z,9.13
2022-10-01T13:55:28.520Z,9.77
2022-10-01T13:57:37.821Z,10.25
2022-10-01T13:59:39.905Z,10.23
2022-10-01T14:01:42.200Z,13.65
2022-10-01T14:03:50.039Z,10.93
2022-10-01T14:05:57.902Z,9.70
2022-10-01T14:08:11.515Z,10.88
2022-10-01T14:10:15.032Z,10.27
2022-10-01T14:12:38.744Z,9.80
2022-10-01T14:15:01.869Z,9.98
2022-10-01T14:17:04.014Z,11.13
2022-10-01T14:19:05.816Z,11.50
2022-10-01T14:21:10.517Z,10.40
2022-10-01T14:23:13.746Z,11.20
2022-10-01T14:25:15.956Z,10.43
2022-10-01T14:27:33.226Z,10.50
2022-10-01T14:29:37.865Z,10.30
2022-10-01T14:31:51.064Z,10.52
2022-10-01T14:34:02.135Z,11.88
2022-10-01T14:36:10.443Z,13.50
2022-10-01T14:38:13.351Z,14.23
2022-10-01T14:40:20.167Z,12.45
2022-10-01T14:42:21.679Z,13.85
2022-10-01T14:44:25.550Z,13.35
2022-10-01T14:46:27.370Z,13.68
2022-10-01T14:48:29.967Z,12.63
2022-10-01T14:50:33.731Z,13.10
2022-10-01T14:52:35.947Z,12.25
2022-10-01T14:54:41.963Z,12.40
2022-10-01T14:56:43.575Z,12.77
2022-10-01T14:58:47.668Z,13.55
2022-10-01T15:00:50.297Z,16.50
2022-10-01T15:03:15.761Z,14.45
2022-10-01T15:05:21.950Z,16.90
2022-10-01T15:07:25.330Z,16.27
2022-10-01T15:09:32.428Z,15.18
2022-10-01T15:11:34.446Z,17.60
2022-10-01T15:13:37.985Z,16.88
2022-10-01T15:15:40.688Z,18.05
2022-10-01T15:17:42.490Z,16.08
2022-10-01T15:19:45.720Z,16.50
2022-10-01T15:21:50.040Z,18.20
2022-10-01T15:23:52.233Z,16.48
2022-10-01T15:25:54.693Z,18.48
2022-10-01T15:27:56.725Z,16.75
2022-10-01T15:29:59.294Z,18.67
2022-10-01T15:32:02.986Z,17.58
2022-10-01T15:34:05.630Z,18.48
2022-10-01T15:36:08.830Z,18.77
2022-10-01T15:38:10.674Z,18.13
2022-10-01T15:40:36.369Z,19.13
2022-10-01T15:42:38.199Z,19.08
2022-10-01T15:44:42.681Z,18.65
2022-10-01T15:46:44.702Z,19.70
2022-10-01T15:48:47.171Z,19.08
2022-10-01T15:50:56.391Z,19.40
2022-10-01T15:53:13.103Z,19.13
2022-10-01T15:55:16.098Z,20.35
2022-10-01T15:57:20.124Z,20.85
2022-10-01T15:59:21.695Z,21.65
2022-10-01T16:01:25.234Z,22.08
2022-10-01T16:03:31.210Z,21.00
2022-10-01T16:05:45.709Z,22.80
2022-10-01T16:07:49.665Z,21.27
2022-10-01T16:09:52.296Z,20.65
2022-10-01T16:11:58.092Z,22.33
2022-10-01T16:14:18.742Z,20.95
2022-10-01T16:16:22.951Z,21.10
2022-10-01T16:18:24.569Z,22.60
2022-10-01T16:20:34.743Z,21.33
2022-10-01T16:22:37.548Z,21.30
2022-10-01T16:25:01.055Z,21.90
2022-10-01T16:29:24.600Z,21.77
2022-10-01T16:31:26.207Z,21.20
2022-10-01T16:33:28.478Z,20.73
2022-10-01T16:35:32.484Z,20.48
2022-10-01T16:37:34.097Z,20.25
2022-10-01T16:39:35.835Z,21.75
2022-10-01T16:41:37.391Z,21.75
2022-10-01T16:43:39.097Z,20.90
2022-10-01T16:45:42.736Z,22.00
2022-10-01T16:47:45.568Z,20.23
2022-10-01T16:49:48.056Z,20.35
2022-10-01T16:51:53.810Z,20.98
2022-10-01T16:53:55.738Z,22.05
2022-10-01T16:55:58.131Z,21.23
2022-10-01T16:58:01.981Z,19.45
2022-10-01T17:00:04.183Z,20.40
2022-10-01T17:02:09.600Z,20.70
2022-10-01T17:04:12.331Z,20.48
2022-10-01T17:06:13.883Z,20.77
2022-10-01T17:08:16.386Z,20.75
2022-10-01T17:10:19.044Z,21.20
2022-10-01T17:12:20.638Z,21.25
2022-10-01T17:14:22.375Z,21.75
2022-10-01T17:16:24.837Z,21.13
2022-10-01T17:18:26.402Z,21.57
2022-10-01T17:20:28.731Z,22.42
2022-10-01T17:22:31.611Z,23.05
2022-10-01T17:24:33.182Z,22.50
2022-10-01T17:26:35.029Z,23.77
2022-10-01T17:28:37.093Z,24.73
2022-10-01T17:30:40.231Z,23.85
2022-10-01T17:32:43.284Z,23.90
2022-10-01T17:34:45.566Z,25.05
2022-10-01T17:36:47.085Z,24.42
2022-10-01T17:38:48.635Z,23.98
2022-10-01T17:40:56.455Z,23.33
2022-10-01T17:42:58.295Z,24.15
2022-10-01T17:45:00.227Z,24.08
2022-10-01T17:47:01.997Z,24.10
2022-10-01T17:49:03.535Z,23.77
2022-10-01T17:51:07.123Z,24.33
2022-10-01T17:53:09.233Z,23.80
2022-10-01T17:55:12.179Z,25.50
2022-10-01T17:57:13.924Z,24.02
2022-10-01T17:59:15.653Z,25.85
2022-10-01T18:01:19.727Z,25.55
2022-10-01T18:03:21.814Z,26.15
2022-10-01T18:05:23.720Z,26.02
2022-10-01T18:07:26.176Z,25.75
2022-10-01T18:09:27.887Z,26.63
2022-10-01T18:11:29.729Z,26.15
2022-10-01T18:13:32.922Z,26.65
2022-10-01T18:17:36.766Z,26.42
2022-10-01T18:19:54.345Z,27.17
2022-10-01T18:22:00.138Z,26.23
2022-10-01T18:24:04.576Z,27.42
2022-10-01T18:26:06.859Z,26.23
2022-10-01T18:28:08.428Z,27.27
2022-10-01T18:30:10.883Z,28.20
2022-10-01T18:32:16.288Z,28.67
2022-10-01T18:34:36.722Z,28.30
2022-10-01T18:36:53.875Z,28.02
2022-10-01T18:39:13.892Z,30.80
2022-10-01T18:41:23.992Z,30.88
2022-10-01T18:43:26.216Z,31.17
2022-10-01T18:45:37.026Z,29.80
2022-10-01T18:47:41.703Z,33.35
2022-10-01T18:49:50.181Z,30.30
2022-10-01T18:51:57.455Z,32.92
2022-10-01T18:54:04.771Z,33.33
2022-10-01T18:56:25.898Z,32.50
2022-10-01T18:58:30.169Z,36.00
2022-10-01T19:00:52.125Z,39.17
2022-10-01T19:03:03.519Z,34.28
2022-10-01T19:05:05.296Z,32.13
2022-10-01T19:07:28.474Z,33.42
2022-10-01T19:09:39.534Z,33.03
2022-10-01T19:11:59.623Z,41.20
2022-10-01T19:14:24.456Z,33.60
2022-10-01T19:16:38.713Z,75.75
2022-10-01T19:18:40.444Z,52.80
2022-10-01T19:20:45.944Z,41.85
2022-10-01T19:23:06.677Z,38.20
2022-10-01T19:25:08.574Z,37.53
2022-10-01T19:27:19.396Z,34.25
2022-10-01T19:29:36.118Z,32.47
2022-10-01T19:31:56.385Z,35.05
2022-10-01T19:34:02.384Z,33.67
2022-10-01T19:36:05.161Z,33.40
2022-10-01T19:38:06.728Z,32.88
2022-10-01T19:40:28.003Z,36.50
2022-10-01T19:42:31.379Z,32.90
2022-10-01T19:44:45.848Z,33.60
2022-10-01T19:46:49.690Z,32.00
2022-10-01T19:49:20.900Z,33.30
2022-10-01T19:51:24.575Z,32.10
2022-10-01T19:53:29.265Z,32.72
2022-10-01T19:55:38.392Z,33.83
2022-10-01T19:57:41.736Z,34.13
2022-10-01T19:59:43.294Z,33.45
2022-10-01T20:01:55.220Z,32.45
2022-10-01T20:04:00.372Z,32.65
2022-10-01T20:06:31.537Z,33.03
2022-10-01T20:08:36.233Z,33.80
2022-10-01T20:10:41.454Z,34.63
2022-10-01T20:12:48.842Z,34.78
2022-10-01T20:15:08.892Z,35.05
2022-10-01T20:17:23.535Z,31.33
2022-10-01T20:19:35.062Z,33.20
2022-10-01T20:21:44.655Z,32.25
2022-10-01T20:23:52.319Z,32.75
2022-10-01T20:25:54.216Z,32.40
2022-10-01T20:27:55.938Z,34.07
2022-10-01T20:30:08.728Z,33.28
2022-10-01T20:32:10.254Z,32.72
2022-10-01T20:34:20.979Z,33.30
2022-10-01T20:36:26.097Z,34.78
2022-10-01T20:38:30.339Z,32.75
2022-10-01T20:40:37.452Z,32.75
2022-10-01T20:42:41.417Z,33.97
2022-10-01T20:44:43.601Z,33.08
2022-10-01T20:46:50.498Z,33.90
2022-10-01T20:48:57.888Z,33.78
2022-10-01T20:51:11.879Z,33.80
2022-10-01T20:53:25.588Z,34.83
2022-10-01T20:55:32.789Z,33.75
2022-10-01T20:57:40.251Z,33.38
2022-10-01T20:59:47.170Z,35.22
2022-10-01T21:01:56.056Z,34.65
2022-10-01T21:04:01.453Z,35.03
2022-10-01T21:06:03.305Z,34.08
2022-10-01T21:08:07.842Z,34.88
2022-10-01T21:10:29.055Z,27.23
2022-10-01T21:12:35.678Z,31.90
2022-10-01T21:14:45.557Z,35.33
2022-10-01T21:16:56.204Z,37.08
2022-10-01T21:19:17.349Z,37.25
2022-10-01T21:21:32.614Z,39.25
2022-10-01T21:23:34.206Z,39.38
2022-10-01T21:25:54.279Z,40.15
2022-10-01T21:27:56.299Z,39.30
2022-10-01T21:29:57.846Z,39.43
2022-10-01T21:31:59.607Z,39.30
2022-10-01T21:34:02.684Z,39.60
2022-10-01T21:36:11.297Z,39.15
2022-10-01T21:38:28.344Z,40.47
2022-10-01T21:40:47.714Z,40.10
2022-10-01T21:42:55.235Z,36.97
2022-10-01T21:45:16.532Z,37.33
2022-10-01T21:47:27.986Z,38.78
2022-10-01T21:49:48.509Z,37.10
2022-10-01T21:51:58.423Z,37.22
2022-10-01T21:54:11.785Z,35.50
2022-10-01T21:58:29.467Z,34.35
2022-10-01T22:00:32.570Z,34.08
2022-10-01T22:02:48.797Z,33.22
2022-10-01T22:04:53.521Z,34.92
2022-10-01T22:06:58.874Z,33.10
2022-10-01T22:09:16.308Z,33.15
2022-10-01T22:11:23.293Z,32.85
2022-10-01T22:13:29.015Z,32.35
2022-10-01T22:15:38.555Z,32.58
2022-10-01T22:17:40.379Z,32.40
2022-10-01T22:19:47.792Z,31.30
2022-10-01T22:21:52.879Z,32.40
2022-10-01T22:24:31.004Z,32.20
2022-10-01T22:26:34.208Z,31.98
2022-10-01T22:28:40.683Z,32.03
2022-10-01T22:30:44.177Z,32.08
2022-10-01T22:32:48.756Z,31.67
2022-10-01T22:34:56.053Z,31.13
2022-10-01T22:37:04.497Z,29.13
2022-10-01T22:39:17.810Z,27.58
2022-10-01T22:41:23.592Z,27.38
2022-10-01T22:43:25.478Z,26.17
2022-10-01T22:45:33.822Z,26.02
2022-10-01T22:47:38.134Z,25.08
2022-10-01T22:49:52.149Z,24.90
2022-10-01T22:51:57.080Z,24.35
2022-10-01T22:54:11.662Z,21.90
2022-10-01T22:56:15.592Z,21.73
2022-10-01T22:58:17.165Z,20.95
2022-10-01T23:00:21.227Z,20.58
2022-10-01T23:02:32.170Z,20.15
2022-10-01T23:04:52.384Z,18.60
2022-10-01T23:07:12.083Z,18.30
2022-10-01T23:09:32.696Z,17.15
2022-10-01T23:11:36.931Z,17.15
2022-10-01T23:13:38.460Z,16.20
2022-10-01T23:16:00.521Z,15.85
2022-10-01T23:18:04.823Z,16.13
2022-10-01T23:20:16.171Z,16.20
2022-10-01T23:22:30.282Z,15.02
2022-10-01T23:24:38.055Z,15.00
2022-10-01T23:26:39.768Z,15.55
2022-10-01T23:28:53.788Z,15.00
2022-10-01T23:30:55.301Z,14.55
2022-10-01T23:33:04.990Z,15.95
2022-10-01T23:35:16.278Z,15.55
2022-10-01T23:37:26.922Z,15.38
2022-10-01T23:39:41.035Z,14.23
2022-10-01T23:41:48.866Z,15.63
2022-10-01T23:43:52.484Z,15.23
2022-10-01T23:46:00.289Z,15.38
2022-10-01T23:48:20.999Z,16.30
2022-10-01T23:50:31.799Z,15.32
2022-10-01T23:52:33.307Z,16.55
2022-10-01T23:55:23.291Z,15.43
2022-10-01T23:57:25.602Z,14.70
2022-10-01T23:59:59.538Z,15.00
